Time;durP1;ratioP1;P1;durP2;ratioP2;P2;SDS_P1;SDS_P2;PMS_P1;PMS_P2;Temp;Humidity;BMP_temperature;BMP_pressure;BME280_temperature;BME280_humidity;BME280_pressure;Samples;Min_cycle;Max_cycle;Signal;HPM_P1;HPM_P2
2021/12/26 00:01:32;;;;;;;2.33;1.77;;;1.60;73.10;;;;;;5056618;28;20061;-89
2021/12/26 00:03:58;;;;;;;1.73;1.60;;;1.60;73.00;;;;;;5038913;28;20021;-88
2021/12/26 00:06:28;;;;;;;2.92;1.80;;;1.60;73.00;;;;;;5022388;28;20040;-88
2021/12/26 00:08:57;;;;;;;3.00;2.08;;;1.60;73.00;;;;;;5057572;28;20021;-89
2021/12/26 00:11:24;;;;;;;2.42;1.85;;;1.50;72.90;;;;;;5055958;28;20036;-88
2021/12/26 00:13:53;;;;;;;2.15;1.70;;;1.50;73.00;;;;;;5055238;28;20553;-88
2021/12/26 00:16:19;;;;;;;2.95;2.13;;;1.50;72.90;;;;;;5055868;28;20040;-89
2021/12/26 00:18:46;;;;;;;2.70;2.10;;;1.50;73.70;;;;;;5022923;28;20055;-88
2021/12/26 00:21:20;;;;;;;2.05;1.85;;;1.50;73.00;;;;;;5039504;28;20037;-88
2021/12/26 00:23:47;;;;;;;2.58;1.98;;;1.50;73.00;;;;;;5055590;28;20032;-88
2021/12/26 00:26:14;;;;;;;2.15;1.95;;;1.50;73.00;;;;;;5040211;28;20088;-88
2021/12/26 00:28:40;;;;;;;2.25;1.90;;;1.50;73.00;;;;;;5040023;28;20066;-89
2021/12/26 00:31:06;;;;;;;2.42;1.98;;;1.50;73.00;;;;;;5038716;28;20016;-88
2021/12/26 00:33:33;;;;;;;2.45;2.00;;;1.50;73.00;;;;;;5057970;28;20087;-88
2021/12/26 00:36:01;;;;;;;2.40;1.90;;;1.50;73.00;;;;;;5031832;28;20028;-88
2021/12/26 00:38:28;;;;;;;2.78;2.10;;;1.50;73.00;;;;;;5056208;28;20033;-89
2021/12/26 00:40:53;;;;;;;2.33;1.92;;;1.50;73.00;;;;;;5038179;28;20020;-88
2021/12/26 00:43:19;;;;;;;2.28;1.85;;;1.50;73.00;;;;;;5054729;28;20040;-88
2021/12/26 00:45:45;;;;;;;2.13;1.92;;;1.40;73.00;;;;;;5055400;28;20101;-87
2021/12/26 00:48:11;;;;;;;2.08;1.88;;;1.40;73.60;;;;;;5040286;28;20378;-87
2021/12/26 00:50:39;;;;;;;2.95;2.00;;;1.40;72.90;;;;;;5055348;28;20533;-88
2021/12/26 00:53:06;;;;;;;2.15;1.77;;;1.40;72.90;;;;;;5021189;28;20029;-88
2021/12/26 00:55:32;;;;;;;2.10;1.90;;;1.40;73.50;;;;;;5037951;28;20030;-88
2021/12/26 00:57:58;;;;;;;2.58;2.15;;;1.40;72.90;;;;;;5038237;28;20029;-88
2021/12/26 01:00:28;;;;;;;2.05;1.85;;;1.40;73.00;;;;;;5038003;28;20028;-88
2021/12/26 01:02:55;;;;;;;2.25;2.00;;;1.40;72.90;;;;;;5037607;28;20067;-88
2021/12/26 01:05:22;;;;;;;2.42;2.22;;;1.40;72.90;;;;;;5038808;28;20032;-88
2021/12/26 01:08:01;;;;;;;2.33;1.90;;;1.40;72.90;;;;;;5037768;28;20040;-88
2021/12/26 01:10:40;;;;;;;2.45;2.00;;;1.30;72.90;;;;;;5039103;28;20036;-88
2021/12/26 01:13:17;;;;;;;2.63;2.05;;;1.30;72.90;;;;;;5038153;28;20022;-88
2021/12/26 01:15:45;;;;;;;2.30;1.80;;;1.30;72.90;;;;;;5038418;28;20060;-88
2021/12/26 01:18:22;;;;;;;2.38;1.80;;;1.30;72.90;;;;;;5039102;28;20446;-87
2021/12/26 01:20:58;;;;;;;2.78;2.17;;;1.30;72.90;;;;;;5037890;28;20029;-88
2021/12/26 01:23:27;;;;;;;1.90;1.73;;;1.30;73.50;;;;;;5037159;28;20033;-88
2021/12/26 01:25:54;;;;;;;2.22;1.80;;;1.30;72.90;;;;;;5054233;28;20056;-88
2021/12/26 01:28:23;;;;;;;2.65;2.05;;;1.30;72.90;;;;;;5054196;28;20028;-87
2021/12/26 01:30:50;;;;;;;2.78;1.95;;;1.30;72.80;;;;;;5054619;28;20033;-89
2021/12/26 01:33:17;;;;;;;2.22;1.90;;;1.30;72.80;;;;;;5038312;28;20089;-87
2021/12/26 01:36:09;;;;;;;2.13;1.95;;;1.30;72.90;;;;;;5055293;28;20036;-88
2021/12/26 01:39:11;;;;;;;2.70;1.90;;;1.30;72.90;;;;;;4963238;28;20043;-88
2021/12/26 01:42:02;;;;;;;2.72;2.10;;;1.20;72.80;;;;;;5038065;28;20041;-88
2021/12/26 01:44:49;;;;;;;2.22;2.03;;;1.20;72.80;;;;;;5032485;28;20520;-88
2021/12/26 01:47:18;;;;;;;2.90;2.05;;;1.20;72.90;;;;;;5023266;28;20034;-88
2021/12/26 01:49:43;;;;;;;2.10;1.90;;;1.20;72.90;;;;;;5021463;28;20060;-88
2021/12/26 01:52:09;;;;;;;2.83;2.10;;;1.20;72.80;;;;;;5020507;28;20490;-87
2021/12/26 01:54:48;;;;;;;2.50;2.20;;;1.20;72.80;;;;;;5036733;28;20037;-87
2021/12/26 01:57:18;;;;;;;2.47;1.98;;;1.20;72.80;;;;;;5038432;28;20037;-87
2021/12/26 01:59:46;;;;;;;3.05;1.98;;;1.20;72.80;;;;;;5036898;28;20033;-88
2021/12/26 02:02:27;;;;;;;2.47;2.00;;;1.20;72.90;;;;;;5038224;28;20091;-88
2021/12/26 02:04:53;;;;;;;2.53;2.10;;;1.10;72.80;;;;;;5022050;28;20060;-87
2021/12/26 02:07:22;;;;;;;2.20;2.00;;;1.10;72.70;;;;;;5021571;28;20029;-86
2021/12/26 02:09:50;;;;;;;2.45;1.98;;;1.10;72.80;;;;;;5021297;28;20099;-88
2021/12/26 02:12:20;;;;;;;2.10;1.80;;;1.10;72.80;;;;;;5038255;28;20111;-87
2021/12/26 02:14:46;;;;;;;3.03;1.98;;;1.10;72.80;;;;;;5037606;28;20424;-88
2021/12/26 02:17:30;;;;;;;2.38;1.90;;;1.10;72.80;;;;;;5039823;28;20052;-87
2021/12/26 02:20:15;;;;;;;3.67;2.28;;;1.10;72.70;;;;;;5054621;28;20458;-87
2021/12/26 02:22:45;;;;;;;2.47;2.10;;;1.10;72.80;;;;;;5053414;28;20370;-87
2021/12/26 02:25:26;;;;;;;2.92;2.00;;;1.10;72.80;;;;;;5020357;28;20107;-87
2021/12/26 02:27:52;;;;;;;2.28;2.05;;;1.10;72.80;;;;;;5025195;28;20040;-87
2021/12/26 02:30:18;;;;;;;2.05;1.88;;;1.10;72.80;;;;;;5020001;28;20029;-87
2021/12/26 02:32:50;;;;;;;3.60;2.13;;;1.10;72.80;;;;;;5038038;28;20033;-87
2021/12/26 02:35:20;;;;;;;3.10;2.08;;;1.10;72.80;;;;;;5039585;28;20079;-87
2021/12/26 02:37:46;;;;;;;3.03;2.10;;;1.10;72.80;;;;;;5040168;28;20124;-86
2021/12/26 02:40:14;;;;;;;2.78;2.20;;;1.00;72.70;;;;;;5022992;28;20025;-87
2021/12/26 02:42:40;;;;;;;2.45;2.08;;;1.10;72.80;;;;;;5023219;28;20036;-87
2021/12/26 02:45:06;;;;;;;2.33;2.03;;;1.00;72.70;;;;;;5056426;28;20025;-87
2021/12/26 02:47:45;;;;;;;2.00;1.80;;;1.10;72.70;;;;;;5056968;28;20029;-87
2021/12/26 02:50:22;;;;;;;2.33;1.90;;;1.10;72.80;;;;;;5039434;28;20025;-87
2021/12/26 02:52:50;;;;;;;2.50;2.00;;;1.00;72.70;;;;;;5040214;28;20021;-87
2021/12/26 02:55:18;;;;;;;2.30;1.90;;;1.00;72.80;;;;;;5039659;28;20413;-87
2021/12/26 02:57:53;;;;;;;3.90;1.80;;;1.00;72.70;;;;;;5039998;28;20425;-87
2021/12/26 03:00:21;;;;;;;2.83;2.25;;;1.00;72.80;;;;;;5039848;28;20033;-87
2021/12/26 03:02:53;;;;;;;2.20;2.00;;;1.00;72.70;;;;;;5039340;28;20120;-87
2021/12/26 03:05:21;;;;;;;2.50;2.08;;;1.00;72.70;;;;;;5039637;28;20091;-87
2021/12/26 03:07:47;;;;;;;3.03;2.25;;;1.00;72.80;;;;;;5039338;28;20028;-87
2021/12/26 03:10:23;;;;;;;2.88;2.10;;;1.00;72.70;;;;;;5023317;28;20037;-87
2021/12/26 03:12:52;;;;;;;2.55;2.20;;;1.00;72.70;;;;;;5039052;28;20027;-87
2021/12/26 03:15:18;;;;;;;2.67;2.08;;;1.00;72.70;;;;;;5039147;28;20017;-87
2021/12/26 03:17:46;;;;;;;3.00;2.42;;;0.90;73.00;;;;;;5039182;28;20075;-87
2021/12/26 03:20:16;;;;;;;2.50;2.00;;;1.00;72.70;;;;;;5023388;28;20029;-87
2021/12/26 03:22:44;;;;;;;2.40;2.08;;;1.00;72.80;;;;;;5056097;28;20060;-87
2021/12/26 03:25:13;;;;;;;2.75;1.90;;;0.90;72.60;;;;;;5038503;28;20490;-86
2021/12/26 03:27:39;;;;;;;2.55;2.00;;;0.90;72.70;;;;;;5038908;28;20033;-87
2021/12/26 03:30:11;;;;;;;2.22;2.00;;;0.90;72.60;;;;;;5038988;28;20428;-87
2021/12/26 03:32:39;;;;;;;2.75;2.20;;;0.90;72.60;;;;;;5023773;28;20033;-87
2021/12/26 03:35:05;;;;;;;2.35;1.98;;;0.90;72.70;;;;;;5022838;28;20481;-87
2021/12/26 03:37:32;;;;;;;3.10;2.33;;;0.90;72.70;;;;;;5039230;28;20112;-88
2021/12/26 03:40:02;;;;;;;3.00;2.00;;;0.90;72.70;;;;;;5040663;28;20025;-87
2021/12/26 03:42:28;;;;;;;2.25;2.00;;;0.90;72.70;;;;;;5038923;28;20040;-87
2021/12/26 03:44:54;;;;;;;3.40;2.40;;;0.90;72.70;;;;;;5038995;28;20025;-87
2021/12/26 03:47:20;;;;;;;2.20;2.00;;;0.90;72.60;;;;;;5021977;28;20056;-86
2021/12/26 03:49:48;;;;;;;2.38;2.17;;;0.90;72.60;;;;;;5038697;28;20099;-86
2021/12/26 03:52:14;;;;;;;2.83;2.10;;;0.90;72.60;;;;;;5038907;28;20067;-85
2021/12/26 03:54:40;;;;;;;2.20;1.98;;;0.90;72.60;;;;;;5038379;28;20061;-86
2021/12/26 03:57:06;;;;;;;2.30;2.10;;;0.80;72.60;;;;;;5055031;28;20441;-86
2021/12/26 03:59:33;;;;;;;2.15;1.95;;;0.90;72.60;;;;;;5038140;28;20033;-87
2021/12/26 04:01:59;;;;;;;2.47;2.05;;;0.80;72.60;;;;;;5022656;28;20128;-87
2021/12/26 04:04:26;;;;;;;2.85;2.20;;;0.80;72.60;;;;;;5023173;28;20033;-86
2021/12/26 04:06:52;;;;;;;2.40;1.90;;;0.80;72.60;;;;;;5038542;28;20458;-87
2021/12/26 04:09:19;;;;;;;2.75;2.00;;;0.80;72.60;;;;;;5021759;28;20036;-86
2021/12/26 04:11:46;;;;;;;2.22;2.03;;;0.80;72.60;;;;;;5038009;28;20025;-87
2021/12/26 04:14:13;;;;;;;2.88;2.30;;;0.80;72.50;;;;;;5038064;28;20392;-86
2021/12/26 04:16:39;;;;;;;2.47;2.08;;;0.80;72.60;;;;;;5037618;28;20033;-86
2021/12/26 04:19:06;;;;;;;2.30;1.65;;;0.80;72.60;;;;;;5037848;28;20025;-87
2021/12/26 04:21:32;;;;;;;2.20;2.00;;;0.80;72.60;;;;;;5054687;28;20036;-86
2021/12/26 04:24:01;;;;;;;2.45;1.98;;;0.80;72.60;;;;;;5038014;28;20061;-86
2021/12/26 04:26:28;;;;;;;2.85;2.05;;;0.80;72.60;;;;;;5055620;28;20052;-87
2021/12/26 04:28:54;;;;;;;2.13;1.80;;;0.80;72.50;;;;;;5037928;28;20033;-87
2021/12/26 04:31:20;;;;;;;2.17;1.92;;;0.80;72.50;;;;;;5037968;28;20017;-86
2021/12/26 04:33:47;;;;;;;2.15;1.88;;;0.80;72.50;;;;;;5022422;28;20047;-87
2021/12/26 04:36:14;;;;;;;1.90;1.70;;;0.80;72.50;;;;;;5038567;28;20025;-86
2021/12/26 04:38:41;;;;;;;2.33;1.90;;;0.80;72.50;;;;;;5038284;28;20417;-86
2021/12/26 04:41:07;;;;;;;2.75;2.35;;;0.70;72.40;;;;;;5022875;28;20025;-87
2021/12/26 04:43:52;;;;;;;2.60;2.13;;;0.70;72.40;;;;;;5040976;28;20044;-87
2021/12/26 04:46:32;;;;;;;2.50;2.30;;;0.70;72.40;;;;;;5025962;28;20132;-87
2021/12/26 04:49:13;;;;;;;3.05;2.05;;;0.70;72.50;;;;;;5026310;28;20033;-86
2021/12/26 04:51:39;;;;;;;2.10;1.90;;;0.70;72.50;;;;;;5038509;28;20033;-86
2021/12/26 04:54:06;;;;;;;2.80;1.92;;;0.70;72.40;;;;;;5038102;28;20087;-86
2021/12/26 04:56:33;;;;;;;2.58;2.00;;;0.70;72.40;;;;;;5037143;28;20071;-86
2021/12/26 04:58:59;;;;;;;2.30;2.10;;;0.70;72.50;;;;;;5053911;28;20021;-86
2021/12/26 05:01:26;;;;;;;3.10;2.25;;;0.70;72.50;;;;;;5037543;28;20044;-87
2021/12/26 05:03:52;;;;;;;2.47;2.15;;;0.70;72.40;;;;;;5037613;28;20036;-86
2021/12/26 05:06:18;;;;;;;1.80;1.70;;;0.70;72.40;;;;;;5037206;28;20025;-86
2021/12/26 05:08:44;;;;;;;2.08;1.88;;;0.70;72.40;;;;;;5037454;28;20029;-87
2021/12/26 05:11:10;;;;;;;2.65;2.10;;;0.70;72.40;;;;;;5053250;28;20037;-87
2021/12/26 05:13:37;;;;;;;2.33;2.00;;;0.70;72.40;;;;;;5038278;28;20028;-86
2021/12/26 05:16:03;;;;;;;2.20;2.00;;;0.60;72.30;;;;;;5053903;28;20025;-87
2021/12/26 05:18:28;;;;;;;2.30;2.03;;;0.70;72.40;;;;;;5037741;28;20124;-86
2021/12/26 05:21:00;;;;;;;2.45;1.98;;;0.60;72.30;;;;;;5037752;28;20148;-86
2021/12/26 05:23:26;;;;;;;2.17;1.77;;;0.70;73.00;;;;;;5036866;28;20116;-86
2021/12/26 05:25:52;;;;;;;2.50;2.03;;;0.60;72.40;;;;;;5036561;28;20486;-86
2021/12/26 05:28:18;;;;;;;2.38;2.13;;;0.60;72.40;;;;;;5036940;28;20025;-86
2021/12/26 05:30:46;;;;;;;2.30;2.10;;;0.60;72.30;;;;;;5020880;28;20063;-86
2021/12/26 05:33:16;;;;;;;3.33;2.22;;;0.60;72.40;;;;;;5038255;28;20029;-85
2021/12/26 05:35:43;;;;;;;2.10;1.90;;;0.60;72.40;;;;;;5037443;28;20116;-86
2021/12/26 05:38:09;;;;;;;2.30;2.00;;;0.60;72.40;;;;;;5053212;28;20111;-87
2021/12/26 05:40:37;;;;;;;2.97;2.20;;;0.60;72.30;;;;;;5021098;28;20033;-86
2021/12/26 05:43:03;;;;;;;2.17;1.98;;;0.60;72.40;;;;;;5053589;28;20060;-86
2021/12/26 05:45:29;;;;;;;2.90;2.20;;;0.60;72.40;;;;;;5037467;28;20045;-85
2021/12/26 05:48:13;;;;;;;3.60;2.10;;;0.60;72.40;;;;;;5024824;28;20052;-86
2021/12/26 05:50:39;;;;;;;2.47;2.28;;;0.60;72.40;;;;;;5053424;28;20044;-86
2021/12/26 05:53:10;;;;;;;2.35;1.90;;;0.60;72.40;;;;;;5020783;28;20033;-87
2021/12/26 05:55:36;;;;;;;2.33;2.10;;;0.60;72.40;;;;;;5036575;28;20504;-86
2021/12/26 05:58:03;;;;;;;2.17;1.98;;;0.60;72.40;;;;;;5036693;28;20032;-87
2021/12/26 06:00:28;;;;;;;2.25;1.95;;;0.60;72.40;;;;;;5036933;28;20029;-86
2021/12/26 06:02:56;;;;;;;2.80;2.03;;;0.60;72.40;;;;;;5037240;28;20031;-86
2021/12/26 06:05:22;;;;;;;2.05;1.88;;;0.60;72.40;;;;;;5036671;28;20120;-86
2021/12/26 06:07:49;;;;;;;2.70;2.20;;;0.60;72.50;;;;;;5037127;28;20076;-86
2021/12/26 06:10:16;;;;;;;2.30;2.10;;;0.60;72.40;;;;;;5056327;28;20032;-86
2021/12/26 06:12:42;;;;;;;2.35;2.13;;;0.60;72.40;;;;;;5024143;28;20351;-87
2021/12/26 06:15:08;;;;;;;2.20;2.00;;;0.60;72.40;;;;;;5041224;28;20529;-86
2021/12/26 06:17:36;;;;;;;2.20;1.90;;;0.60;72.40;;;;;;5057925;28;20024;-86
2021/12/26 06:20:21;;;;;;;2.30;2.08;;;0.60;72.40;;;;;;5058529;28;20129;-86
2021/12/26 06:23:12;;;;;;;2.58;2.22;;;0.70;72.40;;;;;;5038155;28;20037;-87
2021/12/26 06:25:57;;;;;;;2.63;1.98;;;0.60;72.40;;;;;;5029339;28;20064;-86
2021/12/26 06:28:30;;;;;;;2.42;2.20;;;0.60;72.40;;;;;;5010920;28;20095;-86
2021/12/26 06:31:12;;;;;;;2.92;1.80;;;0.60;72.40;;;;;;5056581;28;20043;-86
2021/12/26 06:34:16;;;;;;;2.67;2.22;;;0.60;72.50;;;;;;5005305;28;20463;-86
2021/12/26 06:37:02;;;;;;;2.05;1.85;;;0.60;72.50;;;;;;5016803;28;20036;-86
2021/12/26 06:39:46;;;;;;;2.40;2.20;;;0.60;72.50;;;;;;5045732;28;20059;-86
2021/12/26 06:42:32;;;;;;;2.90;2.13;;;0.60;72.50;;;;;;5057353;28;20402;-87
2021/12/26 06:45:18;;;;;;;2.50;2.30;;;0.60;72.60;;;;;;5043077;28;20493;-87
2021/12/26 06:48:09;;;;;;;2.42;2.08;;;0.60;72.60;;;;;;5052645;28;20052;-86
2021/12/26 06:50:38;;;;;;;4.32;2.05;;;0.60;72.60;;;;;;5008678;28;20029;-86
2021/12/26 06:53:04;;;;;;;2.50;2.03;;;0.60;72.60;;;;;;5040415;28;20063;-85
2021/12/26 06:55:31;;;;;;;2.60;2.20;;;0.70;72.60;;;;;;5023900;28;20037;-86
2021/12/26 06:57:57;;;;;;;2.90;2.15;;;0.70;72.60;;;;;;5056253;28;20083;-86
2021/12/26 07:00:23;;;;;;;2.22;2.03;;;0.70;72.70;;;;;;5039402;28;20052;-86
2021/12/26 07:02:49;;;;;;;2.08;1.88;;;0.70;72.60;;;;;;5039681;28;20029;-86
2021/12/26 07:05:16;;;;;;;2.33;2.00;;;0.80;72.70;;;;;;5023606;28;20025;-86
2021/12/26 07:07:51;;;;;;;2.92;1.92;;;0.70;72.60;;;;;;5025493;28;20037;-86
2021/12/26 07:10:17;;;;;;;1.92;1.80;;;0.70;72.60;;;;;;5056333;28;20569;-86
2021/12/26 07:12:44;;;;;;;2.58;1.90;;;0.80;72.70;;;;;;5056432;28;20059;-86
2021/12/26 07:15:33;;;;;;;2.20;2.00;;;0.80;72.70;;;;;;5043594;28;20041;-86
2021/12/26 07:18:00;;;;;;;2.22;1.90;;;0.80;72.70;;;;;;5039426;28;20033;-86
2021/12/26 07:20:29;;;;;;;2.75;2.10;;;0.80;72.80;;;;;;5038204;28;20131;-85
2021/12/26 07:23:14;;;;;;;2.43;2.00;;;0.80;72.70;;;;;;5055918;28;20044;-86
2021/12/26 07:25:43;;;;;;;2.10;1.90;;;0.80;72.70;;;;;;5023306;28;20057;-86
2021/12/26 07:28:09;;;;;;;1.80;1.70;;;0.80;72.70;;;;;;5056339;28;20035;-87
2021/12/26 07:30:58;;;;;;;1.88;1.75;;;0.80;72.70;;;;;;5014552;28;20064;-85
2021/12/26 07:33:23;;;;;;;3.20;2.25;;;0.80;72.70;;;;;;5039240;28;20036;-87
2021/12/26 07:35:52;;;;;;;2.58;2.10;;;0.80;72.70;;;;;;5039190;28;20023;-86
2021/12/26 07:38:51;;;;;;;2.40;2.10;;;0.80;72.70;;;;;;5032553;28;20041;-85
2021/12/26 07:41:18;;;;;;;2.55;2.03;;;0.90;72.70;;;;;;5039355;28;20033;-86
2021/12/26 07:43:46;;;;;;;3.10;1.95;;;0.80;72.70;;;;;;5055817;28;20021;-86
2021/12/26 07:46:30;;;;;;;2.10;1.90;;;0.90;72.80;;;;;;5056684;28;20056;-86
2021/12/26 07:49:01;;;;;;;2.58;2.05;;;0.90;72.80;;;;;;5023935;28;20044;-86
2021/12/26 07:51:47;;;;;;;2.63;2.20;;;0.90;72.80;;;;;;5055410;28;20109;-86
2021/12/26 07:54:48;;;;;;;2.13;1.90;;;0.90;72.80;;;;;;4995619;28;20066;-87
2021/12/26 07:57:52;;;;;;;2.45;2.05;;;0.90;72.80;;;;;;4984032;28;20038;-86
2021/12/26 08:00:37;;;;;;;2.28;1.90;;;0.90;72.90;;;;;;4967385;28;20053;-86
2021/12/26 08:03:16;;;;;;;2.00;1.80;;;0.90;72.90;;;;;;5015086;28;20041;-87
2021/12/26 08:05:57;;;;;;;2.10;1.90;;;0.90;72.90;;;;;;5057089;28;20047;-85
2021/12/26 08:08:43;;;;;;;2.05;1.85;;;0.90;72.90;;;;;;5056362;28;20041;-86
2021/12/26 08:11:10;;;;;;;2.33;1.65;;;0.90;72.90;;;;;;5022871;28;20064;-87
2021/12/26 08:13:36;;;;;;;1.85;1.70;;;0.90;72.80;;;;;;5022056;28;20478;-86
2021/12/26 08:16:04;;;;;;;1.73;1.63;;;0.90;72.80;;;;;;5039127;28;20121;-87
2021/12/26 08:18:30;;;;;;;1.80;1.67;;;0.90;72.80;;;;;;5055417;28;20508;-87
2021/12/26 08:20:55;;;;;;;2.40;2.20;;;0.90;72.80;;;;;;5038235;28;20033;-85
2021/12/26 08:23:21;;;;;;;2.47;1.70;;;0.90;72.80;;;;;;5038174;28;20045;-86
2021/12/26 08:25:47;;;;;;;2.45;1.90;;;1.00;72.80;;;;;;5038693;28;20110;-87
2021/12/26 08:28:14;;;;;;;2.13;1.92;;;1.00;72.80;;;;;;5021639;28;20033;-87
2021/12/26 08:30:42;;;;;;;2.42;2.05;;;1.00;72.90;;;;;;5038778;28;20037;-87
2021/12/26 08:33:08;;;;;;;2.28;2.08;;;1.00;72.90;;;;;;5037784;28;20036;-87
2021/12/26 08:35:35;;;;;;;2.53;2.30;;;0.90;72.90;;;;;;5053877;28;20029;-86
2021/12/26 08:38:02;;;;;;;2.42;2.08;;;1.00;72.90;;;;;;5038057;28;20018;-86
2021/12/26 08:40:28;;;;;;;2.30;1.88;;;1.00;72.90;;;;;;5021258;28;20473;-87
2021/12/26 08:42:54;;;;;;;2.05;1.83;;;1.00;72.80;;;;;;5054939;28;20029;-86
2021/12/26 08:45:20;;;;;;;2.05;1.83;;;1.00;72.80;;;;;;5037839;28;20048;-87
2021/12/26 08:47:47;;;;;;;3.42;2.25;;;1.00;72.80;;;;;;5037693;28;20028;-87
2021/12/26 08:50:13;;;;;;;3.35;2.22;;;1.00;72.80;;;;;;5037409;28;20179;-86
2021/12/26 08:52:39;;;;;;;1.98;1.75;;;1.00;72.80;;;;;;5021855;28;20402;-86
2021/12/26 08:55:06;;;;;;;2.10;1.80;;;1.00;72.80;;;;;;5037146;28;20021;-86
2021/12/26 08:57:32;;;;;;;2.97;2.17;;;1.00;72.80;;;;;;5037673;28;20025;-86
2021/12/26 08:59:59;;;;;;;2.03;1.83;;;1.00;72.80;;;;;;5038258;28;20511;-87
2021/12/26 09:02:26;;;;;;;2.75;2.00;;;1.00;72.80;;;;;;5037163;28;20029;-86
2021/12/26 09:04:52;;;;;;;2.28;2.00;;;1.00;72.80;;;;;;5037533;28;20021;-86
2021/12/26 09:07:18;;;;;;;2.25;1.92;;;1.00;72.70;;;;;;5037868;28;20024;-85
2021/12/26 09:09:46;;;;;;;2.70;2.03;;;1.00;72.80;;;;;;5037131;28;20029;-85
2021/12/26 09:12:12;;;;;;;2.53;1.92;;;1.00;72.80;;;;;;5037277;28;20453;-88
2021/12/26 09:14:39;;;;;;;2.25;2.05;;;1.00;72.80;;;;;;5053769;28;20499;-84
2021/12/26 09:17:06;;;;;;;2.30;2.00;;;1.00;72.80;;;;;;5053938;28;20021;-86
2021/12/26 09:19:34;;;;;;;2.20;2.00;;;1.10;72.90;;;;;;5058423;28;20065;-88
2021/12/26 09:22:03;;;;;;;2.53;2.10;;;1.10;72.90;;;;;;5042239;28;20025;-86
2021/12/26 09:24:29;;;;;;;2.53;2.03;;;1.00;72.80;;;;;;5060080;28;20045;-88
2021/12/26 09:26:56;;;;;;;2.47;1.83;;;1.10;72.90;;;;;;5023076;28;20111;-86
2021/12/26 09:29:22;;;;;;;2.45;2.10;;;1.10;72.90;;;;;;5038772;28;20041;-86
2021/12/26 09:31:50;;;;;;;2.15;1.95;;;1.10;72.80;;;;;;5037875;28;20474;-84
2021/12/26 09:34:16;;;;;;;2.25;2.05;;;1.10;72.90;;;;;;5054293;28;20115;-87
2021/12/26 09:36:44;;;;;;;2.58;2.08;;;1.10;72.80;;;;;;5037065;28;20037;-85
2021/12/26 09:39:12;;;;;;;2.22;2.03;;;1.10;72.90;;;;;;5037234;28;20021;-86
2021/12/26 09:41:38;;;;;;;2.63;2.10;;;1.10;72.90;;;;;;5037266;28;20040;-87
2021/12/26 09:44:07;;;;;;;2.65;2.00;;;1.10;72.90;;;;;;5054825;28;20021;-86
2021/12/26 09:46:34;;;;;;;2.45;2.00;;;1.10;72.90;;;;;;5040871;28;20025;-87
2021/12/26 09:49:00;;;;;;;3.20;2.22;;;1.10;72.90;;;;;;5057656;28;20029;-85
2021/12/26 09:51:27;;;;;;;2.10;1.90;;;1.10;72.90;;;;;;5058353;28;20126;-84
2021/12/26 09:53:53;;;;;;;2.10;1.90;;;1.10;72.90;;;;;;5041189;28;20093;-83
2021/12/26 09:56:20;;;;;;;2.58;2.05;;;1.20;73.00;;;;;;5040885;28;20087;-84
2021/12/26 09:59:01;;;;;;;4.13;3.10;;;1.20;72.90;;;;;;5058558;28;20036;-83
2021/12/26 10:01:31;;;;;;;2.20;2.00;;;1.20;73.00;;;;;;5057672;28;20111;-84
2021/12/26 10:04:01;;;;;;;2.75;2.30;;;1.20;73.00;;;;;;5041037;28;20464;-84
2021/12/26 10:06:32;;;;;;;3.47;2.83;;;1.20;73.00;;;;;;5056784;28;20021;-86
2021/12/26 10:09:05;;;;;;;3.88;3.03;;;1.20;73.00;;;;;;5056932;28;20029;-91
2021/12/26 10:11:34;;;;;;;4.82;3.13;;;1.20;73.00;;;;;;5056835;28;20029;-86
2021/12/26 10:14:04;;;;;;;3.97;3.17;;;1.20;73.00;;;;;;5056902;28;20036;-87
2021/12/26 10:16:37;;;;;;;6.18;3.55;;;1.20;73.00;;;;;;5058194;28;20121;-87
2021/12/26 10:19:05;;;;;;;4.40;3.20;;;1.30;73.10;;;;;;5040653;28;20036;-89
2021/12/26 10:21:37;;;;;;;4.57;3.05;;;1.30;73.10;;;;;;5056972;28;20025;-89
2021/12/26 10:24:16;;;;;;;5.03;3.15;;;1.30;73.10;;;;;;5057456;28;20104;-91
2021/12/26 10:26:51;;;;;;;5.22;3.50;;;1.30;73.10;;;;;;5058078;28;20099;-88
2021/12/26 10:29:20;;;;;;;6.07;3.63;;;1.30;73.10;;;;;;5040412;28;20532;-87
2021/12/26 10:31:53;;;;;;;4.47;3.30;;;1.30;73.10;;;;;;5057681;28;20060;-85
2021/12/26 10:34:23;;;;;;;4.88;3.30;;;1.30;73.20;;;;;;5040083;28;20116;-85
2021/12/26 10:36:51;;;;;;;5.05;3.25;;;1.40;73.20;;;;;;5056694;28;20033;-87
2021/12/26 10:39:20;;;;;;;5.47;3.40;;;1.40;73.20;;;;;;5040034;28;20056;-87
2021/12/26 10:41:50;;;;;;;4.18;3.03;;;1.40;73.30;;;;;;5056411;28;20128;-85
2021/12/26 10:44:32;;;;;;;4.70;3.40;;;1.40;73.30;;;;;;5039619;28;20039;-84
2021/12/26 10:47:05;;;;;;;4.45;3.03;;;1.40;73.30;;;;;;5040236;28;20052;-84
2021/12/26 10:49:36;;;;;;;4.57;3.28;;;1.40;73.30;;;;;;5055960;28;20025;-84
2021/12/26 10:52:13;;;;;;;3.95;2.83;;;1.40;73.30;;;;;;5056581;28;20084;-84
2021/12/26 10:54:41;;;;;;;4.60;3.33;;;1.40;73.30;;;;;;5057121;28;20040;-87
2021/12/26 10:57:23;;;;;;;4.88;3.10;;;1.40;73.30;;;;;;5040025;28;20024;-87
2021/12/26 10:59:59;;;;;;;3.95;2.85;;;1.50;73.30;;;;;;5056901;28;20109;-86
2021/12/26 11:02:28;;;;;;;4.32;2.90;;;1.50;73.30;;;;;;5040805;28;20036;-87
2021/12/26 11:05:10;;;;;;;3.45;2.90;;;1.50;73.30;;;;;;5056856;28;20029;-87
2021/12/26 11:07:49;;;;;;;4.18;2.97;;;1.50;73.30;;;;;;5056839;28;20025;-87
2021/12/26 11:10:30;;;;;;;4.25;2.80;;;1.50;73.40;;;;;;5057462;28;20036;-87
2021/12/26 11:13:00;;;;;;;3.45;2.65;;;1.50;73.40;;;;;;5040036;28;20028;-86
2021/12/26 11:15:34;;;;;;;3.55;2.67;;;1.60;73.50;;;;;;5056964;28;20057;-89
2021/12/26 11:18:06;;;;;;;3.67;2.53;;;1.60;73.50;;;;;;5057346;28;20032;-86
2021/12/26 11:20:44;;;;;;;3.83;2.60;;;1.60;73.50;;;;;;5038901;28;20090;-83
2021/12/26 11:23:14;;;;;;;3.45;2.60;;;1.60;73.50;;;;;;5039263;28;20029;-79
2021/12/26 11:25:58;;;;;;;3.88;2.63;;;1.60;73.50;;;;;;5037992;28;20191;-83
2021/12/26 11:28:28;;;;;;;3.53;2.75;;;1.60;73.50;;;;;;5055735;28;20391;-81
2021/12/26 11:31:14;;;;;;;3.30;2.70;;;1.60;73.50;;;;;;5054614;28;20033;-82
2021/12/26 11:33:41;;;;;;;4.00;2.60;;;1.70;73.60;;;;;;5039011;28;20034;-88
2021/12/26 11:36:10;;;;;;;3.33;2.50;;;1.70;73.60;;;;;;5054841;28;20060;-81
2021/12/26 11:38:40;;;;;;;3.13;2.15;;;1.70;73.60;;;;;;5038210;28;20031;-83
2021/12/26 11:41:53;;;;;;;3.65;2.53;;;1.70;73.60;;;;;;5055473;28;20543;-81
2021/12/26 11:45:07;;;;;;;4.13;2.65;;;1.70;73.60;;;;;;5055718;28;20079;-83
2021/12/26 11:48:23;;;;;;;2.63;2.35;;;1.70;73.60;;;;;;5056075;28;20487;-81
2021/12/26 11:51:20;;;;;;;3.33;2.50;;;1.70;73.60;;;;;;5035817;28;20041;-83
2021/12/26 11:54:24;;;;;;;3.55;2.92;;;1.70;73.70;;;;;;5036919;28;20033;-81
2021/12/26 11:57:28;;;;;;;3.00;2.47;;;1.70;73.80;;;;;;5054374;28;20128;-81
2021/12/26 11:59:57;;;;;;;3.10;2.47;;;1.70;73.80;;;;;;5037253;28;20033;-82
2021/12/26 12:02:44;;;;;;;3.45;2.58;;;1.80;73.90;;;;;;5055438;28;20083;-81
2021/12/26 12:05:18;;;;;;;3.88;2.67;;;1.80;73.90;;;;;;5055642;28;20483;-81
2021/12/26 12:08:01;;;;;;;3.10;2.42;;;1.80;73.80;;;;;;5036530;28;20025;-81
2021/12/26 12:10:57;;;;;;;2.42;2.08;;;1.80;73.80;;;;;;5054277;28;20033;-81
2021/12/26 12:13:23;;;;;;;2.78;2.40;;;1.90;73.90;;;;;;5037935;28;20032;-81
2021/12/26 12:15:57;;;;;;;2.85;2.38;;;1.80;73.80;;;;;;5054356;28;20029;-81
2021/12/26 12:18:26;;;;;;;2.55;2.35;;;1.90;73.90;;;;;;5054618;28;20059;-81
2021/12/26 12:21:15;;;;;;;2.65;2.20;;;1.90;73.90;;;;;;5036855;28;20116;-81
2021/12/26 12:24:11;;;;;;;3.90;2.60;;;1.90;74.00;;;;;;5053708;28;20033;-86
2021/12/26 12:26:58;;;;;;;2.78;2.33;;;1.90;74.00;;;;;;5036919;28;20033;-82
2021/12/26 12:29:24;;;;;;;2.45;2.25;;;1.90;73.90;;;;;;5037053;28;20116;-81
2021/12/26 12:32:09;;;;;;;4.13;2.60;;;1.90;73.90;;;;;;5037749;28;20130;-81
2021/12/26 12:34:52;;;;;;;3.17;2.70;;;2.00;74.00;;;;;;5053416;28;20068;-81
2021/12/26 12:37:41;;;;;;;3.53;2.42;;;2.00;74.00;;;;;;5053525;28;20082;-80
2021/12/26 12:40:30;;;;;;;3.00;2.30;;;2.00;74.00;;;;;;5054403;28;20029;-81
2021/12/26 12:43:09;;;;;;;3.60;2.55;;;2.00;74.60;;;;;;5053490;28;20033;-80
2021/12/26 12:45:58;;;;;;;3.95;2.50;;;2.00;74.00;;;;;;5053529;28;20025;-82
2021/12/26 12:48:28;;;;;;;3.90;2.78;;;2.10;74.10;;;;;;5037021;28;20029;-80
2021/12/26 12:51:15;;;;;;;2.85;2.35;;;2.10;74.00;;;;;;5036787;28;20460;-82
2021/12/26 12:53:45;;;;;;;3.53;2.55;;;2.10;74.10;;;;;;5035080;28;20492;-81
2021/12/26 12:56:29;;;;;;;3.70;2.55;;;2.10;74.10;;;;;;5036751;28;20035;-83
2021/12/26 12:59:20;;;;;;;4.15;2.50;;;2.10;74.10;;;;;;5053313;28;20029;-81
2021/12/26 13:02:06;;;;;;;3.92;2.78;;;2.20;74.10;;;;;;5036069;28;20124;-80
2021/12/26 13:04:44;;;;;;;4.20;2.90;;;2.20;74.10;;;;;;5052736;28;20432;-80
2021/12/26 13:07:16;;;;;;;4.82;3.35;;;2.20;74.20;;;;;;5036482;28;20417;-84
2021/12/26 13:09:48;;;;;;;3.70;2.45;;;2.20;74.10;;;;;;5035959;28;20119;-80
2021/12/26 13:12:16;;;;;;;3.55;2.80;;;2.20;74.50;;;;;;5053500;28;20029;-80
2021/12/26 13:14:55;;;;;;;3.08;2.50;;;2.30;74.20;;;;;;5052691;28;20051;-80
2021/12/26 13:17:39;;;;;;;4.05;2.70;;;2.30;74.20;;;;;;5052753;28;20417;-84
2021/12/26 13:20:17;;;;;;;4.85;2.97;;;2.30;74.10;;;;;;5052876;28;20437;-82
2021/12/26 13:22:58;;;;;;;4.45;2.90;;;2.30;74.10;;;;;;5053792;28;20033;-81
2021/12/26 13:25:29;;;;;;;3.60;2.80;;;2.40;74.20;;;;;;5035923;28;20507;-82